createdAt,value
2018-11-04T00:01:35.495Z,32.93
2018-11-04T00:04:03.747Z,37.70
2018-11-04T00:06:31.897Z,34.73
2018-11-04T00:09:00.085Z,30.50
2018-11-04T00:11:28.237Z,37.57
2018-11-04T00:13:56.407Z,32.57
2018-11-04T00:16:24.575Z,38.33
2018-11-04T00:18:52.792Z,38.50
2018-11-04T00:21:21.107Z,32.37
2018-11-04T00:23:49.249Z,27.50
2018-11-04T00:26:17.450Z,34.50
2018-11-04T00:28:45.648Z,29.63
2018-11-04T00:31:13.861Z,41.53
2018-11-04T00:33:42.208Z,33.37
2018-11-04T00:36:10.415Z,31.67
2018-11-04T00:38:38.631Z,34.33
2018-11-04T00:41:06.934Z,31.87
2018-11-04T00:43:35.159Z,37.87
2018-11-04T00:46:03.333Z,38.20
2018-11-04T00:48:31.559Z,31.27
2018-11-04T00:50:59.645Z,31.77
2018-11-04T00:53:27.803Z,34.13
2018-11-04T00:55:56.286Z,38.10
2018-11-04T00:58:25.525Z,34.20
2018-11-04T01:00:53.997Z,35.03
2018-11-04T01:03:22.125Z,30.67
2018-11-04T01:05:50.290Z,36.07
2018-11-04T01:08:18.551Z,37.50
2018-11-04T01:10:46.763Z,39.03
2018-11-04T01:13:14.901Z,38.53
2018-11-04T01:15:43.072Z,41.30
2018-11-04T01:18:11.201Z,40.40
2018-11-04T01:20:39.390Z,36.63
2018-11-04T01:23:07.555Z,33.70
2018-11-04T01:25:35.742Z,37.20
2018-11-04T01:28:03.882Z,35.20
2018-11-04T01:30:32.050Z,38.37
2018-11-04T01:33:00.191Z,39.57
2018-11-04T01:35:28.536Z,37.63
2018-11-04T01:37:56.645Z,38.97
2018-11-04T01:40:24.791Z,37.50
2018-11-04T01:42:52.935Z,36.73
2018-11-04T01:45:21.149Z,35.10
2018-11-04T01:47:49.281Z,37.67
2018-11-04T01:50:17.548Z,37.40
2018-11-04T01:52:45.769Z,36.73
2018-11-04T01:55:13.959Z,39.90
2018-11-04T01:57:42.159Z,38.23
2018-11-04T02:00:14.134Z,37.83
2018-11-04T02:02:43.248Z,34.23
2018-11-04T02:05:12.203Z,36.50
2018-11-04T02:07:40.741Z,34.67
2018-11-04T02:10:10.384Z,34.23
2018-11-04T02:12:38.554Z,41.37
2018-11-04T02:15:07.467Z,42.20
2018-11-04T02:17:35.787Z,29.53
2018-11-04T02:20:03.948Z,35.70
2018-11-04T02:22:32.111Z,35.60
2018-11-04T02:25:00.247Z,34.13
2018-11-04T02:27:28.412Z,38.97
2018-11-04T02:29:56.590Z,40.33
2018-11-04T02:32:24.764Z,31.63
2018-11-04T02:34:52.959Z,37.80
2018-11-04T02:37:21.096Z,42.30
2018-11-04T02:39:49.292Z,35.87
2018-11-04T02:42:17.447Z,32.70
2018-11-04T02:44:45.574Z,32.80
2018-11-04T02:47:14.802Z,39.73
2018-11-04T02:49:43.019Z,34.37
2018-11-04T02:52:11.208Z,35.60
2018-11-04T02:54:39.390Z,33.83
2018-11-04T02:57:07.608Z,37.53
2018-11-04T02:59:35.810Z,34.77
2018-11-04T03:02:04.053Z,33.33
2018-11-04T03:04:32.245Z,36.10
2018-11-04T03:07:00.384Z,35.53
2018-11-04T03:09:28.590Z,44.17
2018-11-04T03:11:56.710Z,34.60
2018-11-04T03:14:24.886Z,37.90
2018-11-04T03:16:53.098Z,33.57
2018-11-04T03:19:21.234Z,37.97
2018-11-04T03:21:49.375Z,38.07
2018-11-04T03:24:17.552Z,32.10
2018-11-04T03:26:45.684Z,34.67
2018-11-04T03:29:13.819Z,36.20
2018-11-04T03:31:41.986Z,35.93
2018-11-04T03:34:10.180Z,39.53
2018-11-04T03:39:12.692Z,36.53
2018-11-04T03:41:41.497Z,35.97
2018-11-04T03:44:09.991Z,36.20
2018-11-04T03:46:38.323Z,34.60
2018-11-04T03:49:06.888Z,36.13
2018-11-04T03:51:35.131Z,39.07
2018-11-04T03:54:03.294Z,36.40
2018-11-04T03:56:31.517Z,36.20
2018-11-04T03:58:59.631Z,37.27
2018-11-04T04:01:27.785Z,35.90
2018-11-04T04:03:55.989Z,40.87
2018-11-04T04:06:24.171Z,40.33
2018-11-04T04:08:52.380Z,36.17
2018-11-04T04:11:20.613Z,38.10
2018-11-04T04:13:48.757Z,47.33
2018-11-04T04:16:16.926Z,37.33
2018-11-04T04:18:45.086Z,41.53
2018-11-04T04:21:13.243Z,40.73
2018-11-04T04:23:42.138Z,38.37
2018-11-04T04:26:11.258Z,42.00
2018-11-04T04:28:39.682Z,41.93
2018-11-04T04:31:07.833Z,37.50
2018-11-04T04:33:36.026Z,40.30
2018-11-04T04:36:04.218Z,44.57
2018-11-04T04:38:32.404Z,47.77
2018-11-04T04:41:00.543Z,41.23
2018-11-04T04:43:28.749Z,42.47
2018-11-04T04:45:56.975Z,43.00
2018-11-04T04:48:25.115Z,48.70
2018-11-04T04:50:53.366Z,44.30
2018-11-04T04:53:24.920Z,39.73
2018-11-04T04:55:54.318Z,48.97
2018-11-04T04:58:22.722Z,45.60
2018-11-04T05:00:51.081Z,52.50
2018-11-04T05:03:19.272Z,52.20
2018-11-04T05:05:47.435Z,53.90
2018-11-04T05:08:15.634Z,48.93
2018-11-04T05:10:43.772Z,56.40
2018-11-04T05:13:11.951Z,52.70
2018-11-04T05:15:40.123Z,49.80
2018-11-04T05:18:08.368Z,44.53
2018-11-04T05:20:36.735Z,47.50
2018-11-04T05:23:04.938Z,46.93
2018-11-04T05:25:33.092Z,43.77
2018-11-04T05:28:01.235Z,43.17
2018-11-04T05:30:29.425Z,46.67
2018-11-04T05:32:57.589Z,41.00
2018-11-04T05:35:25.736Z,45.43
2018-11-04T05:37:53.947Z,48.20
2018-11-04T05:40:22.134Z,42.30
2018-11-04T05:42:50.325Z,45.10
2018-11-04T05:45:18.487Z,53.20
2018-11-04T05:47:46.857Z,46.40
2018-11-04T05:50:15.028Z,51.40
2018-11-04T05:52:43.174Z,48.83
2018-11-04T05:55:11.320Z,39.53
2018-11-04T05:57:39.528Z,47.23
2018-11-04T06:00:08.640Z,50.67
2018-11-04T06:02:36.834Z,48.60
2018-11-04T06:05:05.778Z,48.57
2018-11-04T06:07:33.944Z,50.33
2018-11-04T06:10:02.094Z,46.07
2018-11-04T06:12:30.234Z,52.87
2018-11-04T06:14:58.478Z,53.43
2018-11-04T06:17:26.826Z,56.97
2018-11-04T06:19:55.032Z,45.97
2018-11-04T06:22:23.263Z,46.63
2018-11-04T06:24:51.484Z,46.07
2018-11-04T06:27:19.649Z,48.97
2018-11-04T06:29:47.884Z,51.90
2018-11-04T06:32:16.094Z,49.53
2018-11-04T06:34:44.325Z,61.20
2018-11-04T06:37:12.398Z,58.00
2018-11-04T06:39:40.588Z,53.70
2018-11-04T06:42:08.708Z,55.30
2018-11-04T06:44:36.874Z,52.30
2018-11-04T06:47:05.100Z,50.97
2018-11-04T06:49:33.264Z,57.37
2018-11-04T06:52:01.502Z,51.53
2018-11-04T06:54:29.649Z,57.87
2018-11-04T06:56:57.804Z,48.50
2018-11-04T06:59:26.030Z,48.00
2018-11-04T07:01:54.128Z,55.83
2018-11-04T07:04:23.607Z,53.20
2018-11-04T07:06:51.751Z,48.73
2018-11-04T07:09:19.975Z,51.93
2018-11-04T07:11:48.833Z,54.33
2018-11-04T07:14:17.393Z,49.23
2018-11-04T07:16:45.841Z,47.07
2018-11-04T07:19:14.756Z,54.20
2018-11-04T07:21:42.946Z,56.63
2018-11-04T07:24:11.216Z,55.73
2018-11-04T07:26:39.389Z,55.87
2018-11-04T07:29:08.355Z,55.57
2018-11-04T07:31:36.566Z,52.67
2018-11-04T07:34:05.201Z,48.40
2018-11-04T07:36:33.371Z,52.93
2018-11-04T07:39:01.587Z,56.70
2018-11-04T07:41:29.829Z,53.40
2018-11-04T07:43:58.090Z,48.20
2018-11-04T07:46:26.276Z,56.20
2018-11-04T07:48:54.491Z,60.10
2018-11-04T07:51:22.834Z,58.60
2018-11-04T07:53:52.451Z,49.60
2018-11-04T07:56:20.618Z,51.30
2018-11-04T07:58:48.827Z,55.63
2018-11-04T08:01:20.994Z,56.03
2018-11-04T08:03:49.155Z,56.00
2018-11-04T08:06:17.341Z,55.10
2018-11-04T08:08:45.539Z,60.80
2018-11-04T08:11:13.746Z,59.37
2018-11-04T08:13:42.092Z,60.20
2018-11-04T08:16:10.193Z,61.13
2018-11-04T08:18:38.422Z,57.97
2018-11-04T08:21:06.788Z,94.17
2018-11-04T08:23:34.935Z,83.90
2018-11-04T08:26:03.079Z,183.97
2018-11-04T08:28:31.323Z,61.83
2018-11-04T08:31:00.437Z,59.63
2018-11-04T08:33:28.849Z,66.03
2018-11-04T08:35:57.102Z,62.20
2018-11-04T08:38:31.588Z,58.17
2018-11-04T08:40:59.830Z,67.03
2018-11-04T08:43:28.030Z,64.60
2018-11-04T08:45:56.430Z,73.60
2018-11-04T08:48:24.636Z,67.70
2018-11-04T08:50:53.114Z,71.47
2018-11-04T08:53:21.280Z,68.60
2018-11-04T08:55:49.476Z,76.37
2018-11-04T08:58:17.670Z,67.60
2018-11-04T09:00:45.920Z,75.33
2018-11-04T09:03:14.115Z,69.23
2018-11-04T09:05:42.284Z,75.23
2018-11-04T09:08:10.504Z,80.67
2018-11-04T09:10:38.736Z,69.90
2018-11-04T09:13:06.969Z,79.30
2018-11-04T09:15:35.186Z,81.20
2018-11-04T09:18:03.378Z,84.00
2018-11-04T09:20:31.632Z,79.40
2018-11-04T09:22:59.859Z,79.90
2018-11-04T09:25:28.250Z,72.23
2018-11-04T09:27:56.478Z,77.77
2018-11-04T09:30:24.681Z,79.30
2018-11-04T09:32:52.861Z,73.43
2018-11-04T09:35:21.119Z,83.50
2018-11-04T09:37:49.368Z,81.10
2018-11-04T09:40:17.604Z,81.27
2018-11-04T09:42:45.826Z,84.00
2018-11-04T09:45:13.987Z,81.67
2018-11-04T09:47:42.160Z,76.13
2018-11-04T09:50:11.266Z,79.97
2018-11-04T09:52:39.756Z,74.30
2018-11-04T09:55:08.692Z,81.23
2018-11-04T09:57:36.996Z,76.60
2018-11-04T10:00:06.147Z,70.43
2018-11-04T10:02:34.362Z,86.33
2018-11-04T10:05:02.631Z,80.23
2018-11-04T10:07:31.150Z,89.47
2018-11-04T10:10:05.961Z,80.53
2018-11-04T10:12:34.233Z,83.40
2018-11-04T10:15:02.550Z,76.30
2018-11-04T10:17:30.792Z,85.57
2018-11-04T10:19:59.603Z,83.33
2018-11-04T10:22:27.710Z,65.30
2018-11-04T10:24:56.052Z,76.47
2018-11-04T10:27:24.465Z,68.43
2018-11-04T10:29:52.681Z,72.73
2018-11-04T10:32:21.062Z,76.40
2018-11-04T10:34:49.285Z,72.17
2018-11-04T10:37:17.777Z,75.40
2018-11-04T10:39:46.151Z,71.33
2018-11-04T10:42:14.480Z,69.50
2018-11-04T10:44:42.793Z,74.33
2018-11-04T10:47:11.054Z,73.27
2018-11-04T10:49:39.459Z,76.07
2018-11-04T10:52:07.720Z,78.47
2018-11-04T10:54:35.970Z,72.67
2018-11-04T10:57:04.396Z,71.57
2018-11-04T10:59:32.669Z,78.40
2018-11-04T11:02:01.137Z,75.80
2018-11-04T11:04:29.415Z,70.20
2018-11-04T11:06:57.729Z,76.60
2018-11-04T11:09:26.032Z,70.23
2018-11-04T11:11:54.343Z,71.37
2018-11-04T11:14:22.643Z,69.60
2018-11-04T11:16:50.895Z,72.30
2018-11-04T11:19:19.599Z,74.53
2018-11-04T11:21:47.991Z,76.60
2018-11-04T11:24:16.288Z,69.47
2018-11-04T11:26:44.573Z,72.37
2018-11-04T11:29:12.859Z,77.20
2018-11-04T11:31:41.223Z,72.90
2018-11-04T11:34:09.479Z,74.10
2018-11-04T11:36:37.795Z,81.17
2018-11-04T11:39:08.255Z,76.87
2018-11-04T11:41:36.465Z,78.13
2018-11-04T11:44:04.796Z,75.33
2018-11-04T11:46:33.020Z,80.43
2018-11-04T11:49:01.384Z,77.87
2018-11-04T11:51:29.617Z,77.60
2018-11-04T11:53:57.897Z,70.93
2018-11-04T11:56:26.153Z,74.53
2018-11-04T11:58:54.517Z,73.10
2018-11-04T12:01:22.705Z,77.97
2018-11-04T12:03:50.883Z,89.70
2018-11-04T12:06:19.189Z,76.83
2018-11-04T12:08:47.377Z,72.30
2018-11-04T12:11:15.691Z,80.60
2018-11-04T12:13:43.945Z,73.07
2018-11-04T12:16:12.257Z,77.80
2018-11-04T12:18:40.695Z,94.33
2018-11-04T12:21:09.011Z,73.80
2018-11-04T12:23:37.317Z,78.10
2018-11-04T12:26:06.043Z,75.03
2018-11-04T12:28:34.296Z,81.60
2018-11-04T12:31:02.561Z,92.50
2018-11-04T12:33:30.810Z,88.37
2018-11-04T12:35:58.995Z,84.07
2018-11-04T12:38:27.288Z,86.43
2018-11-04T12:40:55.567Z,87.27
2018-11-04T12:43:23.827Z,88.33
2018-11-04T12:45:52.042Z,91.33
2018-11-04T12:48:20.257Z,91.13
2018-11-04T12:50:48.471Z,93.33
2018-11-04T12:53:16.825Z,82.40
2018-11-04T12:55:45.073Z,92.63
2018-11-04T12:58:13.359Z,84.27
2018-11-04T13:00:41.641Z,93.93
2018-11-04T13:03:09.888Z,90.47
2018-11-04T13:05:38.128Z,96.47
2018-11-04T13:08:06.442Z,101.13
2018-11-04T13:10:34.700Z,89.10
2018-11-04T13:13:02.953Z,85.87
2018-11-04T13:15:31.215Z,91.47
2018-11-04T13:17:59.449Z,97.70
2018-11-04T13:20:27.682Z,94.30
2018-11-04T13:22:56.037Z,97.03
2018-11-04T13:25:24.285Z,94.57
2018-11-04T13:27:52.595Z,96.83
2018-11-04T13:30:20.807Z,92.67
2018-11-04T13:32:49.072Z,88.53
2018-11-04T13:35:17.326Z,94.80
2018-11-04T13:37:45.531Z,94.20
2018-11-04T13:40:13.805Z,94.47
2018-11-04T13:42:42.473Z,94.23
2018-11-04T13:45:11.176Z,95.37
2018-11-04T13:47:39.428Z,97.23
2018-11-04T13:50:09.512Z,93.17
2018-11-04T13:52:37.812Z,101.27
2018-11-04T13:55:06.696Z,103.57
2018-11-04T13:57:35.018Z,97.83
2018-11-04T14:00:03.313Z,91.73
2018-11-04T14:02:31.568Z,89.70
2018-11-04T14:04:59.872Z,100.00
2018-11-04T14:07:28.118Z,96.40
2018-11-04T14:09:56.396Z,114.47
2018-11-04T14:12:24.717Z,230.20
2018-11-04T14:14:53.142Z,163.43
2018-11-04T14:17:21.406Z,266.90
2018-11-04T14:19:49.912Z,223.10
2018-11-04T14:22:18.100Z,118.10
2018-11-04T14:24:46.393Z,108.70
2018-11-04T14:27:14.761Z,106.47
2018-11-04T14:29:42.966Z,103.60
2018-11-04T14:32:11.309Z,94.73
2018-11-04T14:34:39.548Z,104.27
2018-11-04T14:37:07.813Z,115.87
2018-11-04T14:39:36.088Z,94.57
2018-11-04T14:42:04.374Z,98.20
2018-11-04T14:44:32.760Z,111.73
2018-11-04T14:47:01.149Z,110.10
2018-11-04T14:49:29.350Z,107.40
2018-11-04T14:51:57.590Z,102.23
2018-11-04T14:54:25.887Z,111.00
2018-11-04T14:56:54.136Z,100.47
2018-11-04T14:59:22.396Z,114.77
2018-11-04T15:01:50.754Z,108.90
2018-11-04T15:04:18.996Z,110.13
2018-11-04T15:06:47.249Z,118.57
2018-11-04T15:09:15.605Z,131.77
2018-11-04T15:11:43.929Z,114.20
2018-11-04T15:14:12.212Z,110.43
2018-11-04T15:16:40.481Z,115.23
2018-11-04T15:19:08.942Z,121.10
2018-11-04T15:21:37.130Z,135.10
2018-11-04T15:24:05.341Z,116.20
2018-11-04T15:26:33.591Z,111.80
2018-11-04T15:29:01.977Z,172.50
2018-11-04T15:31:30.273Z,115.30
2018-11-04T15:33:58.535Z,117.60
2018-11-04T15:36:26.815Z,118.80
2018-11-04T15:38:55.026Z,123.27
2018-11-04T15:41:23.327Z,128.07
2018-11-04T15:43:51.881Z,119.93
2018-11-04T15:46:20.140Z,101.83
2018-11-04T15:48:48.702Z,108.60
2018-11-04T15:51:16.980Z,108.73
2018-11-04T15:53:45.227Z,116.10
2018-11-04T15:56:13.477Z,119.30
2018-11-04T15:58:41.686Z,128.83
2018-11-04T16:01:10.008Z,128.23
2018-11-04T16:03:38.251Z,128.97
2018-11-04T16:06:06.857Z,122.13
2018-11-04T16:08:35.034Z,121.93
2018-11-04T16:11:03.359Z,135.17
2018-11-04T16:13:31.698Z,126.70
2018-11-04T16:16:00.009Z,126.23
2018-11-04T16:18:28.258Z,121.10
2018-11-04T16:20:56.594Z,129.40
2018-11-04T16:23:24.862Z,152.07
2018-11-04T16:25:53.084Z,150.77
2018-11-04T16:28:21.499Z,140.70
2018-11-04T16:30:49.765Z,144.37
2018-11-04T16:33:18.081Z,140.13
2018-11-04T16:35:46.279Z,154.27
2018-11-04T16:38:14.548Z,129.50
2018-11-04T16:40:42.815Z,137.47
2018-11-04T16:43:11.162Z,142.03
2018-11-04T16:45:39.325Z,141.70
2018-11-04T16:48:07.644Z,145.73
2018-11-04T16:50:35.856Z,144.77
2018-11-04T16:53:04.132Z,147.10
2018-11-04T16:55:33.538Z,138.57
2018-11-04T16:58:01.836Z,146.83
2018-11-04T17:00:30.278Z,142.27
2018-11-04T17:02:58.541Z,148.30
2018-11-04T17:05:26.935Z,157.70
2018-11-04T17:07:55.067Z,139.27
2018-11-04T17:10:23.320Z,149.33
2018-11-04T17:12:51.517Z,128.80
2018-11-04T17:15:19.928Z,136.40
2018-11-04T17:17:48.220Z,144.83
2018-11-04T17:20:17.620Z,135.80
2018-11-04T17:22:52.454Z,145.40
2018-11-04T17:25:20.727Z,128.63
2018-11-04T17:27:48.980Z,129.50
2018-11-04T17:30:18.222Z,136.53
2018-11-04T17:32:46.714Z,138.60
2018-11-04T17:35:15.681Z,133.90
2018-11-04T17:37:44.308Z,158.37
2018-11-04T17:40:13.535Z,166.53
2018-11-04T17:42:41.931Z,124.53
2018-11-04T17:45:11.711Z,129.13
2018-11-04T17:47:39.966Z,122.87
2018-11-04T17:50:10.230Z,118.93
2018-11-04T17:52:38.545Z,113.77
2018-11-04T17:55:07.144Z,119.07
2018-11-04T17:57:35.515Z,109.10
2018-11-04T18:00:03.923Z,120.83
2018-11-04T18:02:32.206Z,120.87
2018-11-04T18:05:00.686Z,123.90
2018-11-04T18:07:29.017Z,117.33
2018-11-04T18:09:57.310Z,103.97
2018-11-04T18:12:25.754Z,118.20
2018-11-04T18:14:53.997Z,111.47
2018-11-04T18:17:22.350Z,110.23
2018-11-04T18:19:50.640Z,112.27
2018-11-04T18:22:19.002Z,107.87
2018-11-04T18:24:47.369Z,105.80
2018-11-04T18:27:15.604Z,107.90
2018-11-04T18:29:43.905Z,108.10
2018-11-04T18:32:12.164Z,107.13
2018-11-04T18:34:40.432Z,109.07
2018-11-04T18:37:08.881Z,109.83
2018-11-04T18:39:37.293Z,108.47
2018-11-04T18:42:05.801Z,112.13
2018-11-04T18:44:34.145Z,100.93
2018-11-04T18:47:02.394Z,90.63
2018-11-04T18:49:30.741Z,120.60
2018-11-04T18:51:59.235Z,111.37
2018-11-04T18:54:27.642Z,104.53
2018-11-04T18:56:55.858Z,96.33
2018-11-04T18:59:24.169Z,96.87
2018-11-04T19:01:52.517Z,108.20
2018-11-04T19:04:20.958Z,106.63
2018-11-04T19:06:49.829Z,101.47
2018-11-04T19:09:18.147Z,110.33
2018-11-04T19:11:50.541Z,92.77
2018-11-04T19:14:18.954Z,100.10
2018-11-04T19:16:47.323Z,101.40
2018-11-04T19:19:15.602Z,89.27
2018-11-04T19:21:43.994Z,91.03
2018-11-04T19:24:12.388Z,96.20
2018-11-04T19:26:40.728Z,98.30
2018-11-04T19:29:09.086Z,104.03
2018-11-04T19:31:37.422Z,100.27
2018-11-04T19:34:05.867Z,103.63
2018-11-04T19:36:34.194Z,91.77
2018-11-04T19:39:02.652Z,88.30
2018-11-04T19:41:31.023Z,98.63
2018-11-04T19:43:59.336Z,86.80
2018-11-04T19:46:27.708Z,97.63
2018-11-04T19:48:56.095Z,83.60
2018-11-04T19:51:24.468Z,91.07
2018-11-04T19:53:52.850Z,85.63
2018-11-04T19:56:21.273Z,83.03
2018-11-04T19:58:49.708Z,91.43
2018-11-04T20:01:17.987Z,96.93
2018-11-04T20:03:46.291Z,87.80
2018-11-04T20:06:14.661Z,84.40
2018-11-04T20:08:48.373Z,98.70
2018-11-04T20:11:16.735Z,82.53
2018-11-04T20:13:50.337Z,92.33
2018-11-04T20:16:18.791Z,86.13
2018-11-04T20:18:52.690Z,86.70
2018-11-04T20:21:21.030Z,80.87
2018-11-04T20:23:49.567Z,85.63
2018-11-04T20:26:18.099Z,89.47
2018-11-04T20:28:46.422Z,76.03
2018-11-04T20:31:21.490Z,84.93
2018-11-04T20:33:48.486Z,74.80
2018-11-04T20:36:16.855Z,74.40
2018-11-04T20:38:50.621Z,79.57
2018-11-04T20:41:24.343Z,73.50
2018-11-04T20:43:52.706Z,72.93
2018-11-04T20:46:21.106Z,75.43
2018-11-04T20:48:54.922Z,80.30
2018-11-04T20:51:23.395Z,69.90
2018-11-04T20:53:51.636Z,83.83
2018-11-04T20:56:25.353Z,72.40
2018-11-04T20:58:53.647Z,69.97
2018-11-04T21:01:21.948Z,61.67
2018-11-04T21:03:50.381Z,61.40
2018-11-04T21:06:18.662Z,58.77
2018-11-04T21:08:46.890Z,64.37
2018-11-04T21:11:15.306Z,59.27
2018-11-04T21:13:43.750Z,64.40
2018-11-04T21:16:12.174Z,63.30
2018-11-04T21:18:40.294Z,59.27
2018-11-04T21:21:08.620Z,55.10
2018-11-04T21:23:36.914Z,59.67
2018-11-04T21:26:05.316Z,62.30
2018-11-04T21:28:33.713Z,59.83
2018-11-04T21:31:02.047Z,62.33
2018-11-04T21:33:30.234Z,60.83
2018-11-04T21:35:58.580Z,65.83
2018-11-04T21:38:26.808Z,67.73
2018-11-04T21:40:55.150Z,67.50
2018-11-04T21:43:23.423Z,59.10
2018-11-04T21:45:51.687Z,61.47
2018-11-04T21:48:20.031Z,70.30
2018-11-04T21:50:48.330Z,65.50
2018-11-04T21:53:16.655Z,66.17
2018-11-04T21:55:45.161Z,66.53
2018-11-04T21:58:15.099Z,63.70
2018-11-04T22:00:43.340Z,59.87
2018-11-04T22:03:11.653Z,65.57
2018-11-04T22:05:39.733Z,59.73
2018-11-04T22:08:08.020Z,61.50
2018-11-04T22:10:36.473Z,70.10
2018-11-04T22:13:04.631Z,62.53
2018-11-04T22:15:32.829Z,69.63
2018-11-04T22:18:01.005Z,60.17
2018-11-04T22:20:29.218Z,64.70
2018-11-04T22:22:57.391Z,64.33
2018-11-04T22:25:25.592Z,62.37
2018-11-04T22:27:53.835Z,68.83
2018-11-04T22:30:22.083Z,74.23
2018-11-04T22:32:50.305Z,71.60
2018-11-04T22:35:18.489Z,64.40
2018-11-04T22:37:46.645Z,64.00
2018-11-04T22:40:14.833Z,72.67
2018-11-04T22:42:43.063Z,72.10
2018-11-04T22:45:12.061Z,87.33
2018-11-04T22:47:40.971Z,76.70
2018-11-04T22:50:10.903Z,73.90
2018-11-04T22:52:39.427Z,79.10
2018-11-04T22:55:07.654Z,74.00
2018-11-04T22:57:35.855Z,79.00
2018-11-04T23:00:04.949Z,86.60
2018-11-04T23:02:33.086Z,71.70
2018-11-04T23:05:06.641Z,81.63
2018-11-04T23:07:34.847Z,84.77
2018-11-04T23:10:03.047Z,78.70
2018-11-04T23:12:31.223Z,76.77
2018-11-04T23:14:59.390Z,82.27
2018-11-04T23:17:27.573Z,84.03
2018-11-04T23:19:55.731Z,77.83
2018-11-04T23:22:30.201Z,76.97
2018-11-04T23:24:58.405Z,72.30
2018-11-04T23:27:27.038Z,84.10
2018-11-04T23:29:55.189Z,75.93
2018-11-04T23:32:23.389Z,76.13
2018-11-04T23:34:51.552Z,82.43
2018-11-04T23:37:19.691Z,89.80
2018-11-04T23:39:47.873Z,76.87
2018-11-04T23:42:16.031Z,88.10
2018-11-04T23:44:44.245Z,77.30
2018-11-04T23:47:12.445Z,80.70
2018-11-04T23:49:40.620Z,84.30
2018-11-04T23:52:08.831Z,78.70
2018-11-04T23:54:37.011Z,92.07
2018-11-04T23:57:05.255Z,87.13
2018-11-04T23:59:33.390Z,90.13
